Time;durP1;ratioP1;P1;durP2;ratioP2;P2;SDS_P1;SDS_P2;PMS_P1;PMS_P2;Temp;Humidity;BMP_temperature;BMP_pressure;BME280_temperature;BME280_humidity;BME280_pressure;Samples;Min_cycle;Max_cycle;Signal;HPM_P1;HPM_P2
2022/07/03 00:01:47;;;;;;;12.70;10.08;;;;;;;14.41;72.54;99438.69;1379111;85;21102;-69
2022/07/03 00:03:48;;;;;;;17.77;10.40;;;;;;;14.42;72.65;99433.29;1375210;85;81202;-70
2022/07/03 00:05:49;;;;;;;17.98;10.93;;;;;;;14.41;72.69;99434.25;1374152;85;21051;-70
2022/07/03 00:07:50;;;;;;;;;;;;;;;14.43;72.72;99428.38;1376100;85;21749;-68
2022/07/03 00:09:51;;;;;;;12.20;11.10;;;;;;;14.45;72.86;99430.94;1374171;85;68386;-69
2022/07/03 00:11:52;;;;;;;12.37;10.80;;;;;;;14.43;72.83;99436.34;1377229;85;21125;-70
2022/07/03 00:13:53;;;;;;;17.00;11.90;;;;;;;14.45;72.93;99431.81;1378320;84;21115;-70
2022/07/03 00:15:54;;;;;;;17.10;10.35;;;;;;;14.47;72.97;99427.26;1379033;85;81943;-70
2022/07/03 00:17:55;;;;;;;;;;;;;;;14.52;73.06;99426.14;1382184;84;21017;-70
2022/07/03 00:19:56;;;;;;;11.28;10.18;;;;;;;14.54;73.19;99434.85;1377700;84;20968;-69
2022/07/03 00:21:58;;;;;;;;;;;;;;;14.55;73.16;99429.94;1376764;85;82231;-70
2022/07/03 00:24:06;;;;;;;11.30;10.30;;;;;;;14.57;73.25;99424.09;1374214;85;20134;-69
2022/07/03 00:26:08;;;;;;;11.40;10.40;;;;;;;14.61;73.25;99425.62;1378552;85;21638;-69
2022/07/03 00:28:10;;;;;;;14.90;10.72;;;;;;;14.64;73.30;99422.34;1371867;85;82146;-70
2022/07/03 00:30:12;;;;;;;14.80;11.00;;;;;;;14.70;73.32;99421.61;1371478;85;21024;-70
2022/07/03 00:32:16;;;;;;;12.93;10.15;;;;;;;14.75;73.33;99419.55;1374771;85;21575;-70
2022/07/03 00:34:18;;;;;;;11.03;10.00;;;;;;;14.78;73.38;99416.70;1368887;85;81873;-68
2022/07/03 00:36:20;;;;;;;18.75;11.20;;;;;;;14.84;73.37;99415.48;1374003;85;21036;-70
2022/07/03 00:38:23;;;;;;;13.43;11.10;;;;;;;14.85;73.37;99403.94;1375255;85;21074;-69
2022/07/03 00:40:25;;;;;;;11.38;10.35;;;;;;;14.87;73.37;99404.69;1371219;85;81222;-70
2022/07/03 00:42:26;;;;;;;;;;;;;;;14.85;73.35;99403.94;1373665;85;21028;-69
2022/07/03 00:44:30;;;;;;;10.55;9.48;;;;;;;14.81;73.43;99404.58;1372441;85;20484;-69
2022/07/03 00:46:31;;;;;;;10.28;9.45;;;;;;;14.79;73.44;99407.33;1367083;85;81577;-69
2022/07/03 00:48:33;;;;;;;;;;;;;;;14.79;73.41;99401.17;1375512;85;21103;-70
2022/07/03 00:50:36;;;;;;;10.43;9.43;;;;;;;14.76;73.54;99391.59;1370280;85;20157;-70
2022/07/03 00:52:38;;;;;;;11.12;9.85;;;;;;;14.75;73.55;99392.53;1372988;85;80889;-70
2022/07/03 00:54:43;;;;;;;11.00;9.50;;;;;;;14.75;73.56;99391.69;1371865;85;21003;-69
2022/07/03 00:56:47;;;;;;;11.18;10.15;;;;;;;14.74;73.61;99389.48;1372716;85;21311;-69
2022/07/03 00:58:51;;;;;;;11.03;9.88;;;;;;;14.73;73.63;99386.47;1371963;85;81347;-69
2022/07/03 01:00:54;;;;;;;12.23;10.48;;;;;;;14.72;73.68;99388.73;1371853;85;21551;-68
2022/07/03 01:03:04;;;;;;;19.42;10.43;;;;;;;14.71;73.71;99386.17;1373471;85;21115;-69
2022/07/03 01:05:30;;;;;;;16.77;10.58;;;;;;;14.72;73.75;99382.59;1368505;85;81648;-69
2022/07/03 01:07:38;;;;;;;15.28;11.25;;;;;;;14.74;73.82;99384.18;1373637;85;21020;-69
2022/07/03 01:10:01;;;;;;;11.38;10.35;;;;;;;14.74;73.85;99376.22;1371743;85;81276;-69
2022/07/03 01:12:09;;;;;;;12.60;10.32;;;;;;;14.75;73.88;99376.61;1373563;85;21039;-69
2022/07/03 01:14:34;;;;;;;12.40;10.18;;;;;;;14.74;73.88;99373.56;1371651;85;21040;-69
2022/07/03 01:16:57;;;;;;;11.93;10.70;;;;;;;14.77;73.87;99373.86;1299342;89;81998;-70
2022/07/03 01:19:33;;;;;;;12.98;11.65;;;;;;;14.76;73.89;99373.47;1327268;87;21161;-70
2022/07/03 01:21:43;;;;;;;11.45;10.32;;;;;;;14.77;73.93;99366.77;1327985;88;91778;-70
2022/07/03 01:23:47;;;;;;;11.73;10.53;;;;;;;14.75;73.98;99360.69;1328869;87;21086;-69
2022/07/03 01:25:50;;;;;;;17.12;10.43;;;;;;;14.75;74.01;99363.34;1302484;89;21050;-69
2022/07/03 01:28:10;;;;;;;11.80;10.23;;;;;;;14.75;74.03;99360.69;1299998;89;81029;-69
2022/07/03 01:30:12;;;;;;;15.08;10.75;;;;;;;14.78;74.06;99368.45;1295804;89;21566;-69
2022/07/03 01:32:15;;;;;;;16.65;11.12;;;;;;;14.83;74.09;99368.66;1295726;89;21090;-69
2022/07/03 01:34:18;;;;;;;14.53;10.78;;;;;;;14.83;74.09;99368.66;1293452;89;80957;-69
2022/07/03 01:36:22;;;;;;;20.30;10.68;;;;;;;14.85;74.23;99365.45;1295856;89;21110;-69
2022/07/03 01:38:23;;;;;;;15.63;11.57;;;;;;;14.91;74.26;99367.73;1295525;89;21506;-69
2022/07/03 01:40:25;;;;;;;;;;;;;;;14.93;74.20;99367.18;1276548;91;81982;-69
2022/07/03 01:42:28;;;;;;;14.68;10.88;;;;;;;15.00;74.45;99371.17;1255005;93;20448;-70
2022/07/03 01:44:31;;;;;;;17.37;12.03;;;;;;;15.03;74.51;99368.80;1297674;89;21100;-69
2022/07/03 01:46:33;;;;;;;12.93;11.08;;;;;;;15.05;74.46;99368.23;1292629;89;81068;-70
2022/07/03 01:48:35;;;;;;;13.30;11.85;;;;;;;15.07;74.50;99366.34;1295345;89;21031;-70
2022/07/03 01:50:37;;;;;;;16.35;11.10;;;;;;;15.08;74.51;99363.59;1303797;86;21011;-69
2022/07/03 01:52:42;;;;;;;16.67;11.45;;;;;;;15.10;74.52;99360.36;1300032;89;82212;-69
2022/07/03 01:54:46;;;;;;;12.70;11.50;;;;;;;15.11;74.55;99360.75;1289989;90;21101;-70
2022/07/03 01:56:47;;;;;;;15.58;11.25;;;;;;;15.13;74.60;99360.20;1295457;90;21124;-70
2022/07/03 01:58:49;;;;;;;13.08;11.57;;;;;;;15.15;74.69;99359.61;1313330;88;81019;-69
2022/07/03 02:01:10;;;;;;;13.88;11.45;;;;;;;15.19;74.70;99363.40;1330440;87;21594;-70
2022/07/03 02:03:13;;;;;;;16.17;11.18;;;;;;;15.20;74.77;99358.48;1342687;85;21033;-70
2022/07/03 02:05:33;;;;;;;12.98;11.68;;;;;;;15.22;74.78;99359.25;1344194;85;81151;-70
2022/07/03 02:07:37;;;;;;;12.28;11.05;;;;;;;15.25;74.81;99362.55;1343355;87;21077;-69
2022/07/03 02:10:04;;;;;;;12.73;11.45;;;;;;;15.27;74.82;99362.00;1342536;87;82039;-68
2022/07/03 02:12:08;;;;;;;16.50;11.83;;;;;;;15.30;74.82;99358.31;1343351;87;20988;-70
2022/07/03 02:14:22;;;;;;;17.32;11.78;;;;;;;15.33;74.83;99364.27;1343045;87;21039;-70
2022/07/03 02:16:26;;;;;;;14.33;11.12;;;;;;;15.37;74.82;99356.98;1343081;87;81790;-70
2022/07/03 02:18:36;;;;;;;11.88;10.70;;;;;;;15.39;74.79;99352.41;1324168;88;21569;-70
2022/07/03 02:20:41;;;;;;;11.85;10.53;;;;;;;15.41;74.85;99347.00;1355654;86;22308;-70
2022/07/03 02:22:48;;;;;;;12.37;11.03;;;;;;;15.43;74.84;99347.28;1345690;87;81117;-70
2022/07/03 02:24:52;;;;;;;19.65;11.38;;;;;;;15.46;74.84;99347.57;1344748;87;21431;-70
2022/07/03 02:27:02;;;;;;;11.70;10.32;;;;;;;15.46;74.84;99347.57;1343417;87;21032;-70
2022/07/03 02:29:05;;;;;;;11.15;10.18;;;;;;;15.49;74.89;99345.59;1350316;86;81998;-70
2022/07/03 02:31:09;;;;;;;11.97;10.63;;;;;;;15.53;74.90;99337.42;1355600;86;21564;-70
2022/07/03 02:33:11;;;;;;;12.43;10.38;;;;;;;15.53;74.90;99337.42;1352585;86;21088;-69
2022/07/03 02:35:16;;;;;;;11.75;10.60;;;;;;;15.57;75.02;99342.92;1351405;86;81879;-70
2022/07/03 02:37:19;;;;;;;13.45;10.72;;;;;;;15.57;75.02;99342.92;1354283;86;21017;-70
2022/07/03 02:39:40;;;;;;;11.15;10.23;;;;;;;15.56;75.02;99339.88;1351646;86;21056;-70
2022/07/03 02:41:48;;;;;;;11.15;9.90;;;;;;;15.64;75.01;99346.89;1353898;86;21089;-69
2022/07/03 02:44:01;;;;;;;14.78;9.90;;;;;;;15.64;75.01;99346.89;1352260;86;21045;-70
2022/07/03 02:48:38;;;;;;;11.57;10.38;;;;;;;15.74;74.87;99338.73;1353250;86;21109;-70
2022/07/03 02:50:42;;;;;;;11.18;10.15;;;;;;;15.74;74.87;99338.73;1352649;86;21011;-69
2022/07/03 02:52:56;;;;;;;11.90;10.65;;;;;;;15.76;75.06;99335.48;1352156;86;81725;-70
2022/07/03 02:55:04;;;;;;;15.58;10.35;;;;;;;15.78;75.05;99335.38;1352774;86;21033;-69
2022/07/03 02:57:07;;;;;;;12.15;10.13;;;;;;;15.77;74.89;99334.53;1355860;85;21314;-70
2022/07/03 02:59:24;;;;;;;13.53;9.90;;;;;;;15.83;74.99;99341.30;1352895;86;81747;-70
2022/07/03 03:01:44;;;;;;;12.43;11.08;;;;;;;15.83;74.98;99338.14;1356099;85;21048;-70
2022/07/03 03:04:04;;;;;;;15.20;10.35;;;;;;;15.81;74.98;99334.75;1331330;88;81184;-69
2022/07/03 03:06:08;;;;;;;13.88;10.48;;;;;;;15.81;74.98;99334.75;1362991;85;21072;-70
2022/07/03 03:08:29;;;;;;;15.15;9.70;;;;;;;15.80;75.07;99331.70;1362917;84;21536;-70
2022/07/03 03:10:32;;;;;;;20.30;10.53;;;;;;;15.80;75.03;99329.05;1357873;86;81675;-69
2022/07/03 03:12:40;;;;;;;10.90;9.83;;;;;;;15.78;75.07;99329.61;1336206;87;21551;-70
2022/07/03 03:14:44;;;;;;;11.20;10.08;;;;;;;15.78;75.05;99332.27;1364599;85;22379;-70
2022/07/03 03:16:53;;;;;;;12.85;10.00;;;;;;;15.83;75.03;99331.98;1364767;85;81803;-71
2022/07/03 03:18:55;;;;;;;12.90;9.85;;;;;;;15.83;75.03;99331.98;1365818;85;21089;-71
2022/07/03 03:20:59;;;;;;;16.93;9.78;;;;;;;15.86;75.09;99337.59;1366573;85;21081;-71
2022/07/03 03:23:04;;;;;;;11.95;9.73;;;;;;;15.88;75.09;99329.02;1366087;85;80879;-71
2022/07/03 03:25:06;;;;;;;14.93;9.93;;;;;;;15.91;75.10;99332.81;1369066;85;21541;-71
2022/07/03 03:27:08;;;;;;;10.50;9.53;;;;;;;15.94;75.11;99332.14;1369356;85;21569;-70
2022/07/03 03:29:09;;;;;;;11.53;10.45;;;;;;;15.94;75.11;99332.14;1375724;85;80796;-70
2022/07/03 03:31:12;;;;;;;12.28;9.90;;;;;;;15.98;75.08;99338.13;1377633;85;21532;-70
2022/07/03 03:33:14;;;;;;;11.03;9.85;;;;;;;16.00;75.08;99340.20;1376681;85;21119;-70
2022/07/03 03:35:15;;;;;;;13.88;9.78;;;;;;;16.00;75.08;99340.20;1375781;85;81634;-70
2022/07/03 03:37:16;;;;;;;11.45;10.10;;;;;;;15.99;75.09;99334.49;1378327;85;21080;-70
2022/07/03 03:39:17;;;;;;;;;;;;;;;15.98;75.12;99336.31;1378601;85;21040;-70
2022/07/03 03:41:18;;;;;;;11.28;10.25;;;;;;;15.97;75.17;99335.09;1353071;85;67141;-70
2022/07/03 03:43:20;;;;;;;13.88;9.78;;;;;;;15.96;75.16;99335.58;1351781;86;21096;-70
2022/07/03 03:45:21;;;;;;;10.78;9.78;;;;;;;15.98;75.17;99335.47;1352499;86;21680;-70
2022/07/03 03:47:21;;;;;;;;;;;;;;;16.00;75.18;99330.89;1352480;86;80774;-70
2022/07/03 03:49:23;;;;;;;13.62;9.98;;;;;;;16.02;75.25;99326.34;1346217;87;20538;-70
2022/07/03 03:51:24;;;;;;;16.62;10.05;;;;;;;16.02;75.24;99323.69;1348096;87;21235;-70
2022/07/03 03:53:26;;;;;;;12.28;9.90;;;;;;;16.01;75.31;99324.63;1366199;85;82031;-71
2022/07/03 03:55:28;;;;;;;15.48;9.93;;;;;;;16.00;75.26;99328.23;1356139;86;21322;-71
2022/07/03 03:57:29;;;;;;;12.95;10.38;;;;;;;15.98;75.30;99320.36;1342120;87;81210;-70
2022/07/03 03:59:29;;;;;;;;;;;;;;;15.98;75.32;99319.52;1347866;87;20989;-71
2022/07/03 04:01:31;;;;;;;11.50;10.28;;;;;;;15.97;75.48;99316.48;1348912;87;20166;-71
2022/07/03 04:03:32;;;;;;;;;;;;;;;15.95;75.50;99317.03;1345504;87;81893;-71
2022/07/03 04:05:33;;;;;;;;;;;;;;;15.86;75.52;99305.69;1348421;87;20149;-71
2022/07/03 04:07:35;;;;;;;10.28;9.30;;;;;;;15.93;75.65;99321.61;1348019;87;20173;-71
2022/07/03 04:09:36;;;;;;;12.37;9.50;;;;;;;15.95;75.59;99321.02;1343119;87;81133;-71
2022/07/03 04:11:37;;;;;;;12.18;10.82;;;;;;;15.96;75.56;99320.95;1344960;87;21117;-70
2022/07/03 04:13:38;;;;;;;;;;;;;;;15.98;75.52;99319.52;1346529;87;21057;-70
2022/07/03 04:15:39;;;;;;;11.63;10.48;;;;;;;16.02;75.62;99326.34;1346166;86;67283;-70
2022/07/03 04:17:40;;;;;;;15.68;10.82;;;;;;;16.03;75.55;99328.02;1368613;85;21117;-70
2022/07/03 04:19:41;;;;;;;;;;;;;;;16.05;75.49;99334.11;1370736;85;21028;-70
2022/07/03 04:21:42;;;;;;;12.60;10.88;;;;;;;16.06;75.56;99335.83;1370070;85;68047;-70
2022/07/03 04:23:43;;;;;;;12.73;10.78;;;;;;;16.07;75.52;99336.18;1367685;85;21034;-70
2022/07/03 04:25:44;;;;;;;;;;;;;;;16.10;75.53;99341.32;1369539;85;21036;-71
2022/07/03 04:27:45;;;;;;;13.43;11.10;;;;;;;16.12;75.60;99338.07;1365016;85;67387;-71
2022/07/03 04:29:46;;;;;;;;;;;;;;;16.18;75.59;99342.12;1354187;86;21079;-70
2022/07/03 04:31:47;;;;;;;13.78;10.60;;;;;;;16.22;75.67;99340.98;1352317;86;20134;-70
2022/07/03 04:33:47;;;;;;;;;;;;;;;16.26;75.57;99336.32;1357624;86;81920;-70
2022/07/03 04:35:48;;;;;;;12.55;10.75;;;;;;;16.30;75.61;99336.00;1358051;86;20237;-71
2022/07/03 04:37:50;;;;;;;13.00;9.93;;;;;;;16.33;75.57;99327.81;1352922;86;21031;-71
2022/07/03 04:39:51;;;;;;;15.03;10.75;;;;;;;16.37;75.52;99330.30;1353108;86;80824;-71
2022/07/03 04:41:51;;;;;;;;;;;;;;;16.41;75.49;99325.98;1356838;86;21124;-71
2022/07/03 04:43:52;;;;;;;15.00;10.68;;;;;;;16.44;75.55;99327.10;1355239;86;20138;-70
2022/07/03 04:45:53;;;;;;;;;;;;;;;16.48;75.50;99328.60;1355095;86;80904;-70
2022/07/03 04:47:54;;;;;;;13.03;10.15;;;;;;;16.55;75.55;99328.20;1351419;86;20437;-70
2022/07/03 04:49:55;;;;;;;12.47;9.75;;;;;;;16.62;75.51;99324.17;1355325;86;21040;-70
2022/07/03 04:51:56;;;;;;;;;;;;;;;16.66;75.40;99323.84;1354322;86;80807;-71
2022/07/03 04:53:57;;;;;;;12.53;9.60;;;;;;;16.69;75.45;99324.96;1375706;85;20181;-71
2022/07/03 04:55:58;;;;;;;;;;;;;;;16.73;75.40;99325.62;1355606;86;21119;-71
2022/07/03 04:57:59;;;;;;;10.28;9.13;;;;;;;16.80;75.45;99328.23;1328476;88;67467;-70
2022/07/03 05:00:00;;;;;;;;;;;;;;;16.84;75.37;99324.40;1367816;85;21004;-70
2022/07/03 05:02:01;;;;;;;13.38;9.40;;;;;;;16.91;75.42;99317.37;1364655;85;20132;-70
2022/07/03 05:04:02;;;;;;;11.65;9.35;;;;;;;16.97;75.36;99323.09;1378495;84;82169;-70
2022/07/03 05:06:02;;;;;;;;;;;;;;;17.02;75.30;99318.31;1384483;84;21140;-71
2022/07/03 05:08:04;;;;;;;13.10;8.43;;;;;;;17.11;75.33;99320.83;1354640;86;20239;-70
2022/07/03 05:10:07;;;;;;;14.60;9.80;;;;;;;17.17;75.28;99313.73;1355925;86;80733;-70
2022/07/03 05:12:08;;;;;;;13.90;9.53;;;;;;;17.23;75.23;99304.45;1330822;88;21096;-70
2022/07/03 05:14:09;;;;;;;10.35;9.30;;;;;;;17.26;75.09;99303.39;1353809;86;21079;-71
2022/07/03 05:16:10;;;;;;;11.10;9.33;;;;;;;17.28;75.09;99294.79;1337603;86;80964;-70
2022/07/03 05:18:11;;;;;;;12.13;9.35;;;;;;;17.29;75.01;99292.05;1349963;87;21018;-70
2022/07/03 05:20:24;;;;;;;11.30;10.20;;;;;;;17.31;74.98;99292.77;1356785;86;21075;-70
2022/07/03 05:22:25;;;;;;;19.77;9.30;;;;;;;17.33;75.02;99296.20;1329996;88;82312;-71
2022/07/03 05:24:26;;;;;;;10.23;9.43;;;;;;;17.37;75.02;99299.47;1348663;87;21169;-70
2022/07/03 05:26:27;;;;;;;;;;;;;;;17.40;74.92;99299.74;1329814;88;21041;-70
2022/07/03 05:28:28;;;;;;;17.45;9.80;;;;;;;17.40;75.01;99294.41;1353474;86;67858;-71
2022/07/03 05:30:29;;;;;;;18.48;10.08;;;;;;;17.44;75.02;99295.41;1355176;86;21096;-71
2022/07/03 05:32:30;;;;;;;14.35;10.18;;;;;;;17.46;74.90;99296.16;1353562;86;21426;-71
2022/07/03 05:34:32;;;;;;;11.57;10.00;;;;;;;17.50;74.88;99298.98;1352293;86;81180;-71
2022/07/03 05:36:33;;;;;;;13.88;10.63;;;;;;;17.54;74.85;99299.59;1357086;86;21716;-71
2022/07/03 05:40:57;;;;;;;11.53;10.35;;;;;;;17.61;74.81;99302.20;1353282;86;82110;-70
2022/07/03 05:42:57;;;;;;;15.32;10.25;;;;;;;17.65;74.76;99301.48;1355377;86;21552;-71
2022/07/03 05:44:58;;;;;;;13.00;10.40;;;;;;;17.73;74.74;99301.78;1355198;86;21068;-71
2022/07/03 05:46:59;;;;;;;10.35;9.43;;;;;;;17.70;74.67;99289.52;1354991;86;81060;-70
2022/07/03 05:49:00;;;;;;;14.80;10.20;;;;;;;17.83;74.64;99298.83;1356187;86;20965;-70
2022/07/03 05:51:01;;;;;;;10.93;9.83;;;;;;;17.93;74.67;99304.83;1353757;86;21035;-71
2022/07/03 05:53:02;;;;;;;13.50;10.80;;;;;;;18.04;74.68;99308.89;1352230;86;81711;-71
2022/07/03 05:55:04;;;;;;;11.90;10.82;;;;;;;18.15;74.51;99312.97;1354380;86;21562;-70
2022/07/03 05:57:05;;;;;;;12.73;11.48;;;;;;;18.23;74.30;99314.20;1352981;86;21099;-70
2022/07/03 05:59:06;;;;;;;17.50;12.10;;;;;;;18.27;74.31;99310.34;1386113;83;81977;-70
2022/07/03 06:01:08;;;;;;;14.85;12.70;;;;;;;18.35;74.10;99314.63;1394185;84;20976;-70
2022/07/03 06:03:09;;;;;;;21.12;13.78;;;;;;;18.39;74.09;99309.42;1394077;83;21063;-70
2022/07/03 06:05:10;;;;;;;16.57;14.38;;;;;;;18.45;74.00;99308.11;1393490;84;81846;-70
2022/07/03 06:07:11;;;;;;;17.30;15.60;;;;;;;18.44;73.82;99304.59;1394701;84;21074;-70
2022/07/03 06:09:12;;;;;;;19.57;15.10;;;;;;;18.38;73.79;99300.55;1392949;83;21063;-70
2022/07/03 06:11:13;;;;;;;16.07;14.23;;;;;;;18.50;73.84;99309.45;1393933;83;81834;-70
2022/07/03 06:13:14;;;;;;;22.20;15.25;;;;;;;18.59;73.81;99312.39;1394889;84;20995;-71
2022/07/03 06:15:15;;;;;;;15.65;14.15;;;;;;;18.64;73.70;99310.23;1395096;84;21008;-70
2022/07/03 06:17:16;;;;;;;14.65;13.15;;;;;;;18.69;73.64;99304.03;1394668;83;81862;-70
2022/07/03 06:19:17;;;;;;;14.70;13.25;;;;;;;18.74;73.50;99307.21;1395040;84;21007;-70
2022/07/03 06:21:19;;;;;;;13.50;12.20;;;;;;;18.78;73.38;99302.50;1392967;84;21055;-70
2022/07/03 06:23:19;;;;;;;13.65;11.33;;;;;;;18.84;73.47;99309.56;1374991;85;81247;-71
2022/07/03 06:25:20;;;;;;;18.50;11.10;;;;;;;18.91;73.33;99311.27;1396608;84;21875;-71
2022/07/03 06:27:22;;;;;;;16.12;11.43;;;;;;;18.96;73.25;99309.11;1393681;83;20972;-70
2022/07/03 06:29:25;;;;;;;11.55;10.68;;;;;;;19.06;73.17;99309.23;1392572;84;81830;-70
2022/07/03 06:31:26;;;;;;;11.57;10.55;;;;;;;19.12;73.02;99308.77;1393758;84;21695;-70
2022/07/03 06:33:27;;;;;;;10.68;9.68;;;;;;;19.16;72.96;99307.56;1394845;84;21528;-71
2022/07/03 06:35:28;;;;;;;12.28;11.08;;;;;;;19.21;72.71;99316.04;1393603;84;80834;-70
2022/07/03 06:37:29;;;;;;;11.12;10.13;;;;;;;19.23;72.71;99306.09;1394112;83;21658;-71
2022/07/03 06:39:30;;;;;;;11.28;10.18;;;;;;;19.31;72.78;99302.80;1393649;84;21057;-71
2022/07/03 06:41:31;;;;;;;9.35;8.50;;;;;;;19.42;72.72;99296.61;1396766;84;21055;-69
2022/07/03 06:43:32;;;;;;;9.45;8.58;;;;;;;19.52;72.58;99297.58;1393865;84;21081;-70
2022/07/03 06:45:33;;;;;;;10.00;8.98;;;;;;;19.50;72.27;99298.67;1393381;83;81465;-70
2022/07/03 06:47:39;;;;;;;13.25;9.70;;;;;;;19.51;72.30;99298.55;1393845;83;21119;-69
2022/07/03 06:49:40;;;;;;;13.22;8.53;;;;;;;19.54;72.16;99296.12;1392415;83;21011;-70
2022/07/03 06:51:41;;;;;;;8.85;8.10;;;;;;;19.60;72.21;99296.11;1398328;83;81085;-70
2022/07/03 06:53:42;;;;;;;8.78;8.00;;;;;;;19.67;72.16;99291.95;1393541;84;21023;-71
2022/07/03 06:55:43;;;;;;;9.88;8.10;;;;;;;19.73;71.97;99288.30;1393922;83;21047;-70
2022/07/03 06:57:44;;;;;;;12.90;8.00;;;;;;;19.83;71.85;99287.09;1393387;84;81576;-70
2022/07/03 06:59:45;;;;;;;8.20;7.50;;;;;;;19.86;71.65;99284.16;1393671;83;21103;-70
2022/07/03 07:01:47;;;;;;;24.47;7.22;;;;;;;19.89;71.64;99283.91;1395658;83;21067;-69
2022/07/03 07:03:48;;;;;;;7.15;6.50;;;;;;;19.95;71.55;99287.92;1393757;83;81713;-69
2022/07/03 07:05:49;;;;;;;8.65;7.12;;;;;;;20.07;71.58;99284.70;1411462;83;21612;-70
2022/07/03 07:07:50;;;;;;;6.95;6.10;;;;;;;20.12;71.03;99282.97;1411816;83;21000;-70
2022/07/03 07:09:51;;;;;;;7.60;6.10;;;;;;;20.15;71.01;99281.41;1414250;83;80830;-70
2022/07/03 07:11:52;;;;;;;9.00;6.15;;;;;;;20.08;70.59;99274.38;1411508;82;21073;-70
2022/07/03 07:13:53;;;;;;;5.80;5.30;;;;;;;20.15;70.80;99278.23;1412357;83;21761;-69
2022/07/03 07:15:54;;;;;;;6.33;5.83;;;;;;;20.25;70.78;99272.95;1411344;83;81579;-70
2022/07/03 07:17:55;;;;;;;7.90;5.87;;;;;;;20.33;70.63;99273.66;1415445;83;21179;-70
2022/07/03 07:19:56;;;;;;;6.80;6.30;;;;;;;20.39;70.53;99269.11;1415597;83;21010;-71
2022/07/03 07:21:58;;;;;;;5.60;5.20;;;;;;;20.40;70.43;99264.97;1412481;83;81421;-70
2022/07/03 07:23:59;;;;;;;6.95;6.42;;;;;;;20.51;70.34;99268.08;1415197;83;21121;-70
2022/07/03 07:26:01;;;;;;;8.55;6.87;;;;;;;20.61;70.00;99264.63;1414215;83;22251;-69
2022/07/03 07:28:02;;;;;;;6.90;5.95;;;;;;;20.65;69.78;99267.40;1387570;84;80539;-70
2022/07/03 07:30:03;;;;;;;6.92;5.75;;;;;;;20.75;70.12;99262.50;1408488;82;21086;-69
2022/07/03 07:32:05;;;;;;;6.83;6.22;;;;;;;20.88;69.49;99265.45;1405001;83;21054;-70
2022/07/03 07:34:06;;;;;;;6.15;5.75;;;;;;;20.97;69.59;99255.26;1403138;83;81988;-69
2022/07/03 07:36:07;;;;;;;6.97;5.60;;;;;;;21.08;69.45;99254.33;1403878;83;21027;-71
2022/07/03 07:38:10;;;;;;;5.75;5.22;;;;;;;21.08;68.95;99247.63;1405342;83;21055;-70
2022/07/03 07:40:12;;;;;;;7.15;5.17;;;;;;;21.06;68.84;99249.61;1401816;83;80670;-70
2022/07/03 07:42:13;;;;;;;5.35;4.95;;;;;;;21.07;68.57;99252.62;1401962;83;21007;-69
2022/07/03 07:44:14;;;;;;;5.35;4.78;;;;;;;20.99;68.43;99250.62;1404399;83;21119;-69
2022/07/03 07:46:15;;;;;;;6.58;4.72;;;;;;;20.94;68.65;99253.35;1401833;83;80744;-70
2022/07/03 07:48:18;;;;;;;5.60;5.10;;;;;;;20.94;68.66;99260.05;1404563;83;21613;-69
2022/07/03 07:50:19;;;;;;;7.15;4.87;;;;;;;20.98;68.52;99252.11;1404033;83;21054;-70
2022/07/03 07:52:20;;;;;;;6.12;5.45;;;;;;;20.97;68.30;99251.23;1404461;83;80890;-70
2022/07/03 07:54:21;;;;;;;5.28;4.87;;;;;;;20.95;68.37;99249.67;1404952;83;21043;-70
2022/07/03 07:56:24;;;;;;;6.22;5.12;;;;;;;21.02;68.67;99241.48;1402535;83;21550;-70
2022/07/03 07:58:26;;;;;;;5.00;4.28;;;;;;;21.17;68.48;99245.48;1373711;85;80890;-69
2022/07/03 08:00:27;;;;;;;5.10;4.70;;;;;;;21.26;67.90;99247.33;1361163;86;20988;-70
2022/07/03 08:07:07;;;;;;;5.83;4.40;;;;;;;21.57;67.67;99225.87;1355448;86;21057;-70
2022/07/03 08:09:08;;;;;;;6.50;4.58;;;;;;;21.68;67.50;99234.77;1377626;85;21121;-70
2022/07/03 08:11:09;;;;;;;4.70;3.72;;;;;;;21.70;67.04;99232.81;1348131;86;81438;-70
2022/07/03 08:13:11;;;;;;;4.53;4.15;;;;;;;21.67;67.03;99231.72;1350222;87;21277;-70
2022/07/03 08:15:12;;;;;;;5.12;4.72;;;;;;;21.70;67.07;99230.96;1375653;85;21311;-70
2022/07/03 08:17:13;;;;;;;6.70;4.47;;;;;;;21.83;67.01;99237.39;1374535;85;81670;-71
2022/07/03 08:19:14;;;;;;;4.67;4.28;;;;;;;21.92;66.66;99241.93;1374793;85;21048;-70
2022/07/03 08:21:15;;;;;;;5.10;4.45;;;;;;;21.93;66.45;99236.92;1376471;85;21079;-71
2022/07/03 08:23:16;;;;;;;8.70;4.67;;;;;;;21.93;66.42;99238.73;1375161;85;81518;-71
2022/07/03 08:25:17;;;;;;;10.23;4.20;;;;;;;21.87;66.21;99236.13;1378688;85;21539;-70
2022/07/03 08:27:19;;;;;;;4.40;4.08;;;;;;;21.81;65.81;99235.36;1377120;85;21087;-72
2022/07/03 08:29:20;;;;;;;7.80;3.90;;;;;;;21.80;64.97;99236.84;1378335;84;82044;-71
2022/07/03 08:31:21;;;;;;;3.92;3.62;;;;;;;21.94;65.97;99243.99;1388069;84;21023;-71
2022/07/03 08:33:22;;;;;;;4.22;3.92;;;;;;;22.08;65.45;99241.86;1388323;84;21047;-70
2022/07/03 08:35:23;;;;;;;5.25;3.98;;;;;;;21.98;65.28;99241.86;1401319;83;80576;-70
2022/07/03 08:37:26;;;;;;;5.62;3.77;;;;;;;22.02;65.49;99238.41;1402597;83;21054;-71
2022/07/03 08:39:27;;;;;;;8.78;4.00;;;;;;;22.15;65.17;99234.09;1402671;83;22243;-71
2022/07/03 08:41:30;;;;;;;4.40;4.03;;;;;;;22.22;65.18;99227.16;1400540;83;81322;-70
2022/07/03 08:43:31;;;;;;;3.80;3.40;;;;;;;22.25;64.33;99225.05;1402088;83;21036;-71
2022/07/03 08:45:34;;;;;;;3.33;3.02;;;;;;;22.27;64.22;99223.55;1404076;83;81647;-70
2022/07/03 08:47:37;;;;;;;7.05;4.20;;;;;;;22.35;64.47;99223.72;1400961;83;21035;-70
2022/07/03 08:49:41;;;;;;;3.90;3.60;;;;;;;22.32;64.17;99228.01;1404777;83;21062;-69
2022/07/03 08:51:44;;;;;;;4.15;3.75;;;;;;;22.34;64.19;99223.87;1400326;83;80712;-70
2022/07/03 08:53:47;;;;;;;4.40;4.00;;;;;;;22.38;63.65;99229.30;1402366;83;21017;-71
2022/07/03 08:55:48;;;;;;;5.00;4.22;;;;;;;22.37;63.96;99231.63;1404124;83;21046;-71
2022/07/03 08:57:50;;;;;;;5.58;4.67;;;;;;;22.44;63.78;99228.23;1401979;83;81629;-70
2022/07/03 08:59:53;;;;;;;4.92;4.35;;;;;;;22.37;63.84;99227.09;1401865;83;21003;-70
2022/07/03 09:01:55;;;;;;;4.80;4.40;;;;;;;22.42;63.91;99222.66;1402686;83;21010;-71
2022/07/03 09:03:58;;;;;;;6.12;4.87;;;;;;;22.35;63.59;99221.54;1403782;83;81496;-70
2022/07/03 09:06:00;;;;;;;4.72;4.10;;;;;;;22.35;63.88;99221.54;1404358;83;21042;-71
2022/07/03 09:08:03;;;;;;;5.83;5.03;;;;;;;22.48;63.96;99221.23;1380179;84;21014;-70
2022/07/03 09:10:08;;;;;;;6.67;5.80;;;;;;;22.56;63.75;99222.19;1401739;83;80745;-69
2022/07/03 09:12:10;;;;;;;9.43;5.22;;;;;;;22.64;63.64;99221.95;1402817;83;21055;-70
2022/07/03 09:14:11;;;;;;;5.58;5.17;;;;;;;22.73;63.60;99215.20;1402516;83;21078;-70
2022/07/03 09:16:16;;;;;;;5.80;5.33;;;;;;;22.85;63.46;99210.51;1401903;83;81547;-71
2022/07/03 09:18:19;;;;;;;5.92;5.50;;;;;;;22.92;63.18;99208.92;1404567;83;20997;-70
2022/07/03 09:20:24;;;;;;;5.85;5.35;;;;;;;22.99;63.06;99212.38;1401561;83;21189;-70
2022/07/03 09:22:31;;;;;;;5.95;5.08;;;;;;;23.01;62.88;99204.52;1400545;83;80628;-70
2022/07/03 09:24:33;;;;;;;7.80;5.87;;;;;;;23.00;62.67;99203.30;1404274;83;21682;-70
2022/07/03 09:26:34;;;;;;;9.45;5.50;;;;;;;23.03;62.45;99201.67;1401825;83;21087;-70
2022/07/03 09:28:52;;;;;;;7.95;5.67;;;;;;;22.99;62.45;99207.00;1401677;83;81808;-70
2022/07/03 09:31:01;;;;;;;6.42;5.92;;;;;;;23.08;62.63;99207.43;1395911;83;21203;-71
2022/07/03 09:33:03;;;;;;;6.92;5.33;;;;;;;23.31;62.35;99208.43;1395120;84;21012;-71
2022/07/03 09:35:22;;;;;;;6.05;5.60;;;;;;;23.39;62.05;99197.77;1371165;85;82093;-70
2022/07/03 09:37:29;;;;;;;6.35;5.35;;;;;;;23.53;61.43;99209.34;1395442;84;21044;-71
2022/07/03 09:39:31;;;;;;;6.60;6.00;;;;;;;23.45;60.40;99202.53;1392017;83;21063;-71
2022/07/03 09:41:36;;;;;;;6.60;5.37;;;;;;;23.45;61.29;99206.56;1394979;84;80568;-70
2022/07/03 09:43:42;;;;;;;5.55;5.15;;;;;;;23.51;61.20;99205.97;1390832;84;20972;-71
2022/07/03 09:45:58;;;;;;;6.10;5.47;;;;;;;23.69;61.32;99200.61;1391358;83;81812;-71
2022/07/03 09:47:59;;;;;;;10.50;5.83;;;;;;;23.84;61.20;99203.59;1395893;83;22386;-71